sensor_id;sensor_type;location;lat;lon;timestamp;temperature;humidity
40538;DHT22;27925;41.874;12.526;2022-08-21T00:01:30;26.50;78.50
40538;DHT22;27925;41.874;12.526;2022-08-21T00:03:56;26.50;78.40
40538;DHT22;27925;41.874;12.526;2022-08-21T00:06:22;26.50;78.50
40538;DHT22;27925;41.874;12.526;2022-08-21T00:08:50;26.50;78.60
40538;DHT22;27925;41.874;12.526;2022-08-21T00:11:16;26.50;78.80
40538;DHT22;27925;41.874;12.526;2022-08-21T00:13:42;26.50;78.60
40538;DHT22;27925;41.874;12.526;2022-08-21T00:16:08;26.50;78.70
40538;DHT22;27925;41.874;12.526;2022-08-21T00:18:35;26.50;78.50
40538;DHT22;27925;41.874;12.526;2022-08-21T00:21:01;26.50;78.50
40538;DHT22;27925;41.874;12.526;2022-08-21T00:23:26;26.50;78.60
40538;DHT22;27925;41.874;12.526;2022-08-21T00:25:52;26.50;78.70
40538;DHT22;27925;41.874;12.526;2022-08-21T00:28:18;26.50;78.70
40538;DHT22;27925;41.874;12.526;2022-08-21T00:30:44;26.40;78.60
40538;DHT22;27925;41.874;12.526;2022-08-21T00:33:10;26.30;79.10
40538;DHT22;27925;41.874;12.526;2022-08-21T00:35:39;26.30;79.10
40538;DHT22;27925;41.874;12.526;2022-08-21T00:38:06;26.30;79.30
40538;DHT22;27925;41.874;12.526;2022-08-21T00:40:41;26.20;79.10
40538;DHT22;27925;41.874;12.526;2022-08-21T00:43:09;26.20;79.40
40538;DHT22;27925;41.874;12.526;2022-08-21T00:45:35;26.20;79.60
40538;DHT22;27925;41.874;12.526;2022-08-21T00:48:01;26.20;79.60
40538;DHT22;27925;41.874;12.526;2022-08-21T00:50:32;26.20;79.40
40538;DHT22;27925;41.874;12.526;2022-08-21T00:53:00;26.30;79.10
40538;DHT22;27925;41.874;12.526;2022-08-21T00:55:28;26.30;79.00
40538;DHT22;27925;41.874;12.526;2022-08-21T00:57:57;26.30;79.00
40538;DHT22;27925;41.874;12.526;2022-08-21T01:00:28;26.20;79.10
40538;DHT22;27925;41.874;12.526;2022-08-21T01:02:59;26.20;79.20
40538;DHT22;27925;41.874;12.526;2022-08-21T01:05:25;26.20;79.40
40538;DHT22;27925;41.874;12.526;2022-08-21T01:07:51;26.10;79.50
40538;DHT22;27925;41.874;12.526;2022-08-21T01:10:18;26.10;79.40
40538;DHT22;27925;41.874;12.526;2022-08-21T01:12:43;26.10;79.60
40538;DHT22;27925;41.874;12.526;2022-08-21T01:15:09;26.10;79.10
40538;DHT22;27925;41.874;12.526;2022-08-21T01:17:36;26.20;79.10
40538;DHT22;27925;41.874;12.526;2022-08-21T01:20:06;26.10;78.60
40538;DHT22;27925;41.874;12.526;2022-08-21T01:22:32;26.10;78.90
40538;DHT22;27925;41.874;12.526;2022-08-21T01:24:58;26.10;78.70
40538;DHT22;27925;41.874;12.526;2022-08-21T01:27:24;26.10;78.50
40538;DHT22;27925;41.874;12.526;2022-08-21T01:32:34;26.10;78.20
40538;DHT22;27925;41.874;12.526;2022-08-21T01:35:01;26.10;78.00
40538;DHT22;27925;41.874;12.526;2022-08-21T01:37:27;26.00;77.80
40538;DHT22;27925;41.874;12.526;2022-08-21T01:39:52;26.10;77.80
40538;DHT22;27925;41.874;12.526;2022-08-21T01:42:19;26.00;77.80
40538;DHT22;27925;41.874;12.526;2022-08-21T01:44:44;26.00;77.80
40538;DHT22;27925;41.874;12.526;2022-08-21T01:47:12;26.00;77.80
40538;DHT22;27925;41.874;12.526;2022-08-21T01:49:39;25.90;77.80
40538;DHT22;27925;41.874;12.526;2022-08-21T01:52:05;25.90;77.60
40538;DHT22;27925;41.874;12.526;2022-08-21T01:54:32;25.90;77.90
40538;DHT22;27925;41.874;12.526;2022-08-21T01:56:58;25.90;78.00
40538;DHT22;27925;41.874;12.526;2022-08-21T01:59:25;25.90;78.10
40538;DHT22;27925;41.874;12.526;2022-08-21T02:01:51;25.90;78.30
40538;DHT22;27925;41.874;12.526;2022-08-21T02:04:19;25.80;78.20
40538;DHT22;27925;41.874;12.526;2022-08-21T02:06:45;25.80;78.60
40538;DHT22;27925;41.874;12.526;2022-08-21T02:09:12;25.70;78.80
40538;DHT22;27925;41.874;12.526;2022-08-21T02:11:40;25.70;78.60
40538;DHT22;27925;41.874;12.526;2022-08-21T02:14:14;25.70;78.70
40538;DHT22;27925;41.874;12.526;2022-08-21T02:16:41;25.70;78.70
40538;DHT22;27925;41.874;12.526;2022-08-21T02:19:08;25.70;78.90
40538;DHT22;27925;41.874;12.526;2022-08-21T02:21:34;25.70;78.90
40538;DHT22;27925;41.874;12.526;2022-08-21T02:24:00;25.70;78.90
40538;DHT22;27925;41.874;12.526;2022-08-21T02:26:27;25.70;79.00
40538;DHT22;27925;41.874;12.526;2022-08-21T02:28:52;25.70;79.00
40538;DHT22;27925;41.874;12.526;2022-08-21T02:31:18;25.60;79.20
40538;DHT22;27925;41.874;12.526;2022-08-21T02:33:44;25.70;79.20
40538;DHT22;27925;41.874;12.526;2022-08-21T02:36:11;25.60;79.40
40538;DHT22;27925;41.874;12.526;2022-08-21T02:38:38;25.60;79.30
40538;DHT22;27925;41.874;12.526;2022-08-21T02:41:06;25.50;79.20
40538;DHT22;27925;41.874;12.526;2022-08-21T02:43:33;25.50;79.50
40538;DHT22;27925;41.874;12.526;2022-08-21T02:45:59;25.50;79.60
40538;DHT22;27925;41.874;12.526;2022-08-21T02:48:28;25.40;80.00
40538;DHT22;27925;41.874;12.526;2022-08-21T02:50:59;25.30;79.90
40538;DHT22;27925;41.874;12.526;2022-08-21T02:53:25;25.30;80.30
40538;DHT22;27925;41.874;12.526;2022-08-21T02:55:52;25.30;80.10
40538;DHT22;27925;41.874;12.526;2022-08-21T02:58:22;25.30;80.20
40538;DHT22;27925;41.874;12.526;2022-08-21T03:00:47;25.30;80.30
40538;DHT22;27925;41.874;12.526;2022-08-21T03:03:13;25.20;80.40
40538;DHT22;27925;41.874;12.526;2022-08-21T03:05:40;25.20;80.40
40538;DHT22;27925;41.874;12.526;2022-08-21T03:08:08;25.20;80.60
40538;DHT22;27925;41.874;12.526;2022-08-21T03:10:39;25.20;80.60
40538;DHT22;27925;41.874;12.526;2022-08-21T03:13:06;25.20;81.60
40538;DHT22;27925;41.874;12.526;2022-08-21T03:15:32;25.10;80.50
40538;DHT22;27925;41.874;12.526;2022-08-21T03:17:58;25.20;80.50
40538;DHT22;27925;41.874;12.526;2022-08-21T03:20:26;25.20;80.40
40538;DHT22;27925;41.874;12.526;2022-08-21T03:22:52;25.20;80.20
40538;DHT22;27925;41.874;12.526;2022-08-21T03:25:23;25.20;80.00
40538;DHT22;27925;41.874;12.526;2022-08-21T03:27:49;25.20;81.00
40538;DHT22;27925;41.874;12.526;2022-08-21T03:30:17;25.20;80.00
40538;DHT22;27925;41.874;12.526;2022-08-21T03:32:42;25.20;80.00
40538;DHT22;27925;41.874;12.526;2022-08-21T03:35:09;25.20;80.20
40538;DHT22;27925;41.874;12.526;2022-08-21T03:37:35;25.20;80.00
40538;DHT22;27925;41.874;12.526;2022-08-21T03:40:04;25.20;80.00
40538;DHT22;27925;41.874;12.526;2022-08-21T03:42:30;25.20;80.20
40538;DHT22;27925;41.874;12.526;2022-08-21T03:44:55;25.20;80.20
40538;DHT22;27925;41.874;12.526;2022-08-21T03:47:21;25.10;80.90
40538;DHT22;27925;41.874;12.526;2022-08-21T03:49:48;25.00;81.10
40538;DHT22;27925;41.874;12.526;2022-08-21T03:52:13;25.00;81.40
40538;DHT22;27925;41.874;12.526;2022-08-21T03:54:39;25.00;81.60
40538;DHT22;27925;41.874;12.526;2022-08-21T03:57:07;24.90;81.90
40538;DHT22;27925;41.874;12.526;2022-08-21T03:59:34;24.90;82.00
40538;DHT22;27925;41.874;12.526;2022-08-21T04:02:02;24.80;82.10
40538;DHT22;27925;41.874;12.526;2022-08-21T04:04:29;24.70;82.10
40538;DHT22;27925;41.874;12.526;2022-08-21T04:06:56;24.70;82.20
40538;DHT22;27925;41.874;12.526;2022-08-21T04:09:23;24.70;82.30
40538;DHT22;27925;41.874;12.526;2022-08-21T04:11:49;24.70;81.80
40538;DHT22;27925;41.874;12.526;2022-08-21T04:14:16;24.60;81.80
40538;DHT22;27925;41.874;12.526;2022-08-21T04:16:42;24.60;81.80
40538;DHT22;27925;41.874;12.526;2022-08-21T04:19:10;24.60;81.50
40538;DHT22;27925;41.874;12.526;2022-08-21T04:21:37;24.60;82.00
40538;DHT22;27925;41.874;12.526;2022-08-21T04:24:04;24.70;81.50
40538;DHT22;27925;41.874;12.526;2022-08-21T04:26:30;24.70;81.30
40538;DHT22;27925;41.874;12.526;2022-08-21T04:28:57;24.60;81.20
40538;DHT22;27925;41.874;12.526;2022-08-21T04:31:24;24.60;81.80
40538;DHT22;27925;41.874;12.526;2022-08-21T04:33:50;24.70;81.30
40538;DHT22;27925;41.874;12.526;2022-08-21T04:36:16;24.70;81.10
40538;DHT22;27925;41.874;12.526;2022-08-21T04:38:42;24.70;80.90
40538;DHT22;27925;41.874;12.526;2022-08-21T04:41:08;24.70;80.50
40538;DHT22;27925;41.874;12.526;2022-08-21T04:43:34;24.80;79.90
40538;DHT22;27925;41.874;12.526;2022-08-21T04:45:59;24.80;79.30
40538;DHT22;27925;41.874;12.526;2022-08-21T04:48:26;24.80;79.00
40538;DHT22;27925;41.874;12.526;2022-08-21T04:53:34;24.90;78.40
40538;DHT22;27925;41.874;12.526;2022-08-21T04:56:05;24.90;78.10
40538;DHT22;27925;41.874;12.526;2022-08-21T04:58:33;24.80;78.00
40538;DHT22;27925;41.874;12.526;2022-08-21T05:01:00;24.90;77.80
40538;DHT22;27925;41.874;12.526;2022-08-21T05:03:27;24.90;77.80
40538;DHT22;27925;41.874;12.526;2022-08-21T05:05:53;24.90;77.70
40538;DHT22;27925;41.874;12.526;2022-08-21T05:08:22;25.00;77.50
40538;DHT22;27925;41.874;12.526;2022-08-21T05:10:49;25.00;77.30
40538;DHT22;27925;41.874;12.526;2022-08-21T05:13:15;25.00;77.30
40538;DHT22;27925;41.874;12.526;2022-08-21T05:15:41;25.00;77.10
40538;DHT22;27925;41.874;12.526;2022-08-21T05:18:07;25.00;76.90
40538;DHT22;27925;41.874;12.526;2022-08-21T05:20:34;25.00;77.20
40538;DHT22;27925;41.874;12.526;2022-08-21T05:23:01;24.90;76.90
40538;DHT22;27925;41.874;12.526;2022-08-21T05:25:27;24.90;76.80
40538;DHT22;27925;41.874;12.526;2022-08-21T05:27:53;24.90;76.70
40538;DHT22;27925;41.874;12.526;2022-08-21T05:30:20;24.80;76.50
40538;DHT22;27925;41.874;12.526;2022-08-21T05:32:46;24.80;76.30
40538;DHT22;27925;41.874;12.526;2022-08-21T05:35:13;24.80;75.90
40538;DHT22;27925;41.874;12.526;2022-08-21T05:37:39;24.90;75.60
40538;DHT22;27925;41.874;12.526;2022-08-21T05:40:06;24.90;75.30
40538;DHT22;27925;41.874;12.526;2022-08-21T05:42:33;25.00;75.00
40538;DHT22;27925;41.874;12.526;2022-08-21T05:44:59;25.00;74.70
40538;DHT22;27925;41.874;12.526;2022-08-21T05:47:24;25.00;74.50
40538;DHT22;27925;41.874;12.526;2022-08-21T05:49:50;25.20;74.30
40538;DHT22;27925;41.874;12.526;2022-08-21T05:52:20;25.40;73.90
40538;DHT22;27925;41.874;12.526;2022-08-21T05:54:46;25.60;73.50
40538;DHT22;27925;41.874;12.526;2022-08-21T05:57:12;25.70;73.00
40538;DHT22;27925;41.874;12.526;2022-08-21T05:59:37;25.90;72.50
40538;DHT22;27925;41.874;12.526;2022-08-21T06:02:04;26.10;72.30
40538;DHT22;27925;41.874;12.526;2022-08-21T06:04:29;26.20;71.90
40538;DHT22;27925;41.874;12.526;2022-08-21T06:06:55;26.30;71.70
40538;DHT22;27925;41.874;12.526;2022-08-21T06:09:21;26.50;71.40
40538;DHT22;27925;41.874;12.526;2022-08-21T06:11:46;26.60;71.10
40538;DHT22;27925;41.874;12.526;2022-08-21T06:14:15;26.80;70.70
40538;DHT22;27925;41.874;12.526;2022-08-21T06:16:42;27.00;70.10
40538;DHT22;27925;41.874;12.526;2022-08-21T06:19:07;27.20;69.60
40538;DHT22;27925;41.874;12.526;2022-08-21T06:21:33;27.30;69.10
40538;DHT22;27925;41.874;12.526;2022-08-21T06:23:59;27.40;69.00
40538;DHT22;27925;41.874;12.526;2022-08-21T06:26:24;27.50;68.50
40538;DHT22;27925;41.874;12.526;2022-08-21T06:28:50;27.60;68.30
40538;DHT22;27925;41.874;12.526;2022-08-21T06:31:22;27.80;68.00
40538;DHT22;27925;41.874;12.526;2022-08-21T06:33:48;27.90;67.30
40538;DHT22;27925;41.874;12.526;2022-08-21T06:36:14;28.00;66.80
40538;DHT22;27925;41.874;12.526;2022-08-21T06:38:40;28.10;66.40
40538;DHT22;27925;41.874;12.526;2022-08-21T06:41:06;28.20;65.90
40538;DHT22;27925;41.874;12.526;2022-08-21T06:43:32;28.10;65.60
40538;DHT22;27925;41.874;12.526;2022-08-21T06:45:58;28.20;65.60
40538;DHT22;27925;41.874;12.526;2022-08-21T06:48:24;28.10;65.40
40538;DHT22;27925;41.874;12.526;2022-08-21T06:50:49;28.20;65.30
40538;DHT22;27925;41.874;12.526;2022-08-21T06:53:19;28.20;64.70
40538;DHT22;27925;41.874;12.526;2022-08-21T06:55:47;28.30;65.00
40538;DHT22;27925;41.874;12.526;2022-08-21T06:58:15;28.40;64.50
40538;DHT22;27925;41.874;12.526;2022-08-21T07:00:46;28.40;64.40
40538;DHT22;27925;41.874;12.526;2022-08-21T07:03:30;28.40;63.90
40538;DHT22;27925;41.874;12.526;2022-08-21T07:05:56;28.50;63.60
40538;DHT22;27925;41.874;12.526;2022-08-21T07:08:24;28.50;63.70
40538;DHT22;27925;41.874;12.526;2022-08-21T07:10:52;28.60;63.10
40538;DHT22;27925;41.874;12.526;2022-08-21T07:13:18;28.60;63.10
40538;DHT22;27925;41.874;12.526;2022-08-21T07:15:44;28.70;62.80
40538;DHT22;27925;41.874;12.526;2022-08-21T07:18:10;28.90;62.50
40538;DHT22;27925;41.874;12.526;2022-08-21T07:20:37;29.10;62.10
40538;DHT22;27925;41.874;12.526;2022-08-21T07:23:08;29.10;61.70
40538;DHT22;27925;41.874;12.526;2022-08-21T07:25:34;29.30;61.60
40538;DHT22;27925;41.874;12.526;2022-08-21T07:28:00;29.30;61.20
40538;DHT22;27925;41.874;12.526;2022-08-21T07:30:27;29.40;60.60
40538;DHT22;27925;41.874;12.526;2022-08-21T07:32:53;29.30;60.80
40538;DHT22;27925;41.874;12.526;2022-08-21T07:35:19;29.30;60.70
40538;DHT22;27925;41.874;12.526;2022-08-21T07:37:45;29.40;60.60
40538;DHT22;27925;41.874;12.526;2022-08-21T07:40:12;29.40;60.20
40538;DHT22;27925;41.874;12.526;2022-08-21T07:42:45;29.40;60.10
40538;DHT22;27925;41.874;12.526;2022-08-21T07:45:13;29.50;60.10
40538;DHT22;27925;41.874;12.526;2022-08-21T07:47:39;29.60;59.80
40538;DHT22;27925;41.874;12.526;2022-08-21T07:50:05;29.60;59.60
40538;DHT22;27925;41.874;12.526;2022-08-21T07:52:32;29.50;59.40
40538;DHT22;27925;41.874;12.526;2022-08-21T07:54:58;29.60;59.80
40538;DHT22;27925;41.874;12.526;2022-08-21T07:57:24;29.60;59.20
40538;DHT22;27925;41.874;12.526;2022-08-21T07:59:50;29.50;59.00
40538;DHT22;27925;41.874;12.526;2022-08-21T08:02:26;29.50;59.10
40538;DHT22;27925;41.874;12.526;2022-08-21T08:04:52;29.50;59.40
40538;DHT22;27925;41.874;12.526;2022-08-21T08:07:19;29.50;59.10
40538;DHT22;27925;41.874;12.526;2022-08-21T08:09:45;29.40;59.30
40538;DHT22;27925;41.874;12.526;2022-08-21T08:12:11;29.40;59.10
40538;DHT22;27925;41.874;12.526;2022-08-21T08:14:37;29.50;59.10
40538;DHT22;27925;41.874;12.526;2022-08-21T08:17:02;29.60;59.00
40538;DHT22;27925;41.874;12.526;2022-08-21T08:19:29;29.60;59.10
40538;DHT22;27925;41.874;12.526;2022-08-21T08:21:54;29.70;58.90
40538;DHT22;27925;41.874;12.526;2022-08-21T08:24:20;29.60;58.80
40538;DHT22;27925;41.874;12.526;2022-08-21T08:26:46;29.50;58.70
40538;DHT22;27925;41.874;12.526;2022-08-21T08:29:12;29.50;59.00
40538;DHT22;27925;41.874;12.526;2022-08-21T08:31:38;29.50;59.00
40538;DHT22;27925;41.874;12.526;2022-08-21T08:34:04;29.50;59.10
40538;DHT22;27925;41.874;12.526;2022-08-21T08:36:35;29.40;58.60
40538;DHT22;27925;41.874;12.526;2022-08-21T08:39:05;29.40;59.00
40538;DHT22;27925;41.874;12.526;2022-08-21T08:41:32;29.30;58.40
40538;DHT22;27925;41.874;12.526;2022-08-21T08:44:01;29.30;58.90
40538;DHT22;27925;41.874;12.526;2022-08-21T08:46:44;29.40;59.10
40538;DHT22;27925;41.874;12.526;2022-08-21T08:49:42;29.30;58.50
40538;DHT22;27925;41.874;12.526;2022-08-21T08:52:31;29.40;58.30
40538;DHT22;27925;41.874;12.526;2022-08-21T08:55:06;29.40;58.70
40538;DHT22;27925;41.874;12.526;2022-08-21T08:57:33;29.50;58.90
40538;DHT22;27925;41.874;12.526;2022-08-21T09:00:07;29.50;58.60
40538;DHT22;27925;41.874;12.526;2022-08-21T09:02:39;29.60;58.00
40538;DHT22;27925;41.874;12.526;2022-08-21T09:05:06;29.50;58.10
40538;DHT22;27925;41.874;12.526;2022-08-21T09:07:47;29.60;58.00
40538;DHT22;27925;41.874;12.526;2022-08-21T09:11:10;29.60;57.30
40538;DHT22;27925;41.874;12.526;2022-08-21T09:19:16;29.80;56.10
40538;DHT22;27925;41.874;12.526;2022-08-21T09:27:14;30.00;55.60
40538;DHT22;27925;41.874;12.526;2022-08-21T09:29:46;30.00;55.60
40538;DHT22;27925;41.874;12.526;2022-08-21T09:32:23;30.10;54.10
40538;DHT22;27925;41.874;12.526;2022-08-21T09:35:16;30.30;55.70
40538;DHT22;27925;41.874;12.526;2022-08-21T09:40:29;30.50;54.60
40538;DHT22;27925;41.874;12.526;2022-08-21T09:43:16;30.60;52.80
40538;DHT22;27925;41.874;12.526;2022-08-21T09:45:46;30.70;54.20
40538;DHT22;27925;41.874;12.526;2022-08-21T09:50:39;30.80;53.60
40538;DHT22;27925;41.874;12.526;2022-08-21T09:53:13;30.90;53.90
40538;DHT22;27925;41.874;12.526;2022-08-21T09:55:51;31.00;53.50
40538;DHT22;27925;41.874;12.526;2022-08-21T09:58:38;31.00;51.50
40538;DHT22;27925;41.874;12.526;2022-08-21T10:01:05;31.10;53.00
40538;DHT22;27925;41.874;12.526;2022-08-21T10:03:32;31.20;52.60
40538;DHT22;27925;41.874;12.526;2022-08-21T10:06:05;31.20;52.50
40538;DHT22;27925;41.874;12.526;2022-08-21T10:08:35;31.40;52.60
40538;DHT22;27925;41.874;12.526;2022-08-21T10:11:07;31.50;52.80
40538;DHT22;27925;41.874;12.526;2022-08-21T10:14:00;31.60;52.60
40538;DHT22;27925;41.874;12.526;2022-08-21T10:25:14;31.70;50.50
40538;DHT22;27925;41.874;12.526;2022-08-21T10:28:00;31.80;50.50
40538;DHT22;27925;41.874;12.526;2022-08-21T10:36:14;32.20;49.70
40538;DHT22;27925;41.874;12.526;2022-08-21T10:47:19;32.50;47.70
40538;DHT22;27925;41.874;12.526;2022-08-21T10:50:29;32.50;47.60
40538;DHT22;27925;41.874;12.526;2022-08-21T10:53:11;32.60;48.30
40538;DHT22;27925;41.874;12.526;2022-08-21T10:58:40;32.50;46.30
40538;DHT22;27925;41.874;12.526;2022-08-21T11:01:15;32.50;46.30
40538;DHT22;27925;41.874;12.526;2022-08-21T11:03:46;32.50;47.20
40538;DHT22;27925;41.874;12.526;2022-08-21T11:06:34;32.50;47.10
40538;DHT22;27925;41.874;12.526;2022-08-21T11:09:15;32.80;45.50
40538;DHT22;27925;41.874;12.526;2022-08-21T11:17:13;33.30;43.90
40538;DHT22;27925;41.874;12.526;2022-08-21T11:19:45;33.30;43.50
40538;DHT22;27925;41.874;12.526;2022-08-21T11:25:35;33.50;44.40
40538;DHT22;27925;41.874;12.526;2022-08-21T11:28:52;33.50;43.00
40538;DHT22;27925;41.874;12.526;2022-08-21T11:34:53;33.70;42.40
40538;DHT22;27925;41.874;12.526;2022-08-21T11:40:12;33.70;42.40
40538;DHT22;27925;41.874;12.526;2022-08-21T11:48:08;33.80;41.80
40538;DHT22;27925;41.874;12.526;2022-08-21T11:50:35;33.80;42.30
40538;DHT22;27925;41.874;12.526;2022-08-21T11:53:22;33.90;41.80
40538;DHT22;27925;41.874;12.526;2022-08-21T11:58:31;33.80;43.20
40538;DHT22;27925;41.874;12.526;2022-08-21T12:01:05;33.80;44.90
40538;DHT22;27925;41.874;12.526;2022-08-21T12:03:40;33.70;46.10
40538;DHT22;27925;41.874;12.526;2022-08-21T12:06:11;33.70;46.90
40538;DHT22;27925;41.874;12.526;2022-08-21T12:08:42;33.50;47.10
40538;DHT22;27925;41.874;12.526;2022-08-21T12:14:13;33.20;46.50
40538;DHT22;27925;41.874;12.526;2022-08-21T12:16:47;33.00;47.40
40538;DHT22;27925;41.874;12.526;2022-08-21T12:19:28;32.80;46.40
40538;DHT22;27925;41.874;12.526;2022-08-21T12:22:15;32.70;47.50
40538;DHT22;27925;41.874;12.526;2022-08-21T12:24:45;32.60;47.80
40538;DHT22;27925;41.874;12.526;2022-08-21T12:29:48;32.70;47.70
40538;DHT22;27925;41.874;12.526;2022-08-21T12:34:58;32.70;48.30
40538;DHT22;27925;41.874;12.526;2022-08-21T12:40:14;32.50;46.90
40538;DHT22;27925;41.874;12.526;2022-08-21T12:42:46;32.30;47.30
40538;DHT22;27925;41.874;12.526;2022-08-21T12:45:19;32.30;47.20
40538;DHT22;27925;41.874;12.526;2022-08-21T12:47:56;32.30;46.40
40538;DHT22;27925;41.874;12.526;2022-08-21T12:50:43;32.30;45.30
40538;DHT22;27925;41.874;12.526;2022-08-21T12:53:32;32.50;45.10
40538;DHT22;27925;41.874;12.526;2022-08-21T12:56:07;32.60;45.00
40538;DHT22;27925;41.874;12.526;2022-08-21T12:58:34;32.70;45.60
40538;DHT22;27925;41.874;12.526;2022-08-21T13:01:06;32.80;44.90
40538;DHT22;27925;41.874;12.526;2022-08-21T13:03:35;32.80;44.10
40538;DHT22;27925;41.874;12.526;2022-08-21T13:06:04;32.90;43.60
40538;DHT22;27925;41.874;12.526;2022-08-21T13:08:30;33.00;42.80
40538;DHT22;27925;41.874;12.526;2022-08-21T13:11:03;33.00;42.20
40538;DHT22;27925;41.874;12.526;2022-08-21T13:13:30;33.10;42.30
40538;DHT22;27925;41.874;12.526;2022-08-21T13:16:03;33.20;43.10
40538;DHT22;27925;41.874;12.526;2022-08-21T13:18:30;33.20;43.40
40538;DHT22;27925;41.874;12.526;2022-08-21T13:21:10;33.30;43.40
40538;DHT22;27925;41.874;12.526;2022-08-21T13:23:36;33.40;44.00
40538;DHT22;27925;41.874;12.526;2022-08-21T13:26:13;33.40;44.40
40538;DHT22;27925;41.874;12.526;2022-08-21T13:28:39;33.40;44.40
40538;DHT22;27925;41.874;12.526;2022-08-21T13:31:07;33.40;44.50
40538;DHT22;27925;41.874;12.526;2022-08-21T13:33:37;33.50;44.60
40538;DHT22;27925;41.874;12.526;2022-08-21T13:36:14;33.50;44.80
40538;DHT22;27925;41.874;12.526;2022-08-21T13:38:42;33.50;44.30
40538;DHT22;27925;41.874;12.526;2022-08-21T13:43:46;33.70;44.60
40538;DHT22;27925;41.874;12.526;2022-08-21T13:46:14;33.90;44.50
40538;DHT22;27925;41.874;12.526;2022-08-21T13:48:41;33.90;44.60
40538;DHT22;27925;41.874;12.526;2022-08-21T13:51:08;33.90;44.80
40538;DHT22;27925;41.874;12.526;2022-08-21T13:53:44;34.10;44.70
40538;DHT22;27925;41.874;12.526;2022-08-21T13:56:22;34.20;44.30
40538;DHT22;27925;41.874;12.526;2022-08-21T13:58:48;34.30;44.30
40538;DHT22;27925;41.874;12.526;2022-08-21T14:01:29;34.40;44.50
40538;DHT22;27925;41.874;12.526;2022-08-21T14:04:20;34.40;44.20
40538;DHT22;27925;41.874;12.526;2022-08-21T14:06:46;34.30;44.50
40538;DHT22;27925;41.874;12.526;2022-08-21T14:09:33;34.20;44.20
40538;DHT22;27925;41.874;12.526;2022-08-21T14:12:02;34.20;43.90
40538;DHT22;27925;41.874;12.526;2022-08-21T14:14:33;34.20;43.60
40538;DHT22;27925;41.874;12.526;2022-08-21T14:17:05;34.20;43.80
40538;DHT22;27925;41.874;12.526;2022-08-21T14:19:42;34.10;43.80
40538;DHT22;27925;41.874;12.526;2022-08-21T14:22:28;34.20;44.30
40538;DHT22;27925;41.874;12.526;2022-08-21T14:28:09;34.40;43.50
40538;DHT22;27925;41.874;12.526;2022-08-21T14:30:40;34.40;43.30
40538;DHT22;27925;41.874;12.526;2022-08-21T14:33:11;34.50;42.80
40538;DHT22;27925;41.874;12.526;2022-08-21T14:35:37;34.60;42.50
40538;DHT22;27925;41.874;12.526;2022-08-21T14:38:18;34.60;42.80
40538;DHT22;27925;41.874;12.526;2022-08-21T14:40:48;34.70;42.70
40538;DHT22;27925;41.874;12.526;2022-08-21T14:43:15;34.70;42.20
40538;DHT22;27925;41.874;12.526;2022-08-21T14:45:40;34.80;42.20
40538;DHT22;27925;41.874;12.526;2022-08-21T14:48:07;34.70;42.10
40538;DHT22;27925;41.874;12.526;2022-08-21T14:50:33;34.70;42.20
40538;DHT22;27925;41.874;12.526;2022-08-21T14:52:59;34.60;42.40
40538;DHT22;27925;41.874;12.526;2022-08-21T14:55:25;34.60;42.90
40538;DHT22;27925;41.874;12.526;2022-08-21T14:57:52;34.60;42.80
40538;DHT22;27925;41.874;12.526;2022-08-21T15:00:21;34.60;43.20
40538;DHT22;27925;41.874;12.526;2022-08-21T15:02:50;34.60;43.20
40538;DHT22;27925;41.874;12.526;2022-08-21T15:05:17;34.60;43.20
40538;DHT22;27925;41.874;12.526;2022-08-21T15:07:43;34.40;42.70
40538;DHT22;27925;41.874;12.526;2022-08-21T15:10:10;34.40;43.10
40538;DHT22;27925;41.874;12.526;2022-08-21T15:12:36;34.40;42.90
40538;DHT22;27925;41.874;12.526;2022-08-21T15:15:06;34.30;42.80
40538;DHT22;27925;41.874;12.526;2022-08-21T15:17:32;34.30;43.10
40538;DHT22;27925;41.874;12.526;2022-08-21T15:19:58;34.30;42.60
40538;DHT22;27925;41.874;12.526;2022-08-21T15:22:24;34.20;42.50
40538;DHT22;27925;41.874;12.526;2022-08-21T15:24:49;34.20;42.80
40538;DHT22;27925;41.874;12.526;2022-08-21T15:27:17;34.20;42.90
40538;DHT22;27925;41.874;12.526;2022-08-21T15:29:44;34.20;43.20
40538;DHT22;27925;41.874;12.526;2022-08-21T15:32:26;34.20;43.20
40538;DHT22;27925;41.874;12.526;2022-08-21T15:34:55;34.20;43.10
40538;DHT22;27925;41.874;12.526;2022-08-21T15:37:21;34.20;42.90
40538;DHT22;27925;41.874;12.526;2022-08-21T15:39:49;34.20;42.80
40538;DHT22;27925;41.874;12.526;2022-08-21T15:42:15;34.20;42.50
40538;DHT22;27925;41.874;12.526;2022-08-21T15:44:41;34.20;42.50
40538;DHT22;27925;41.874;12.526;2022-08-21T15:47:13;34.20;42.30
40538;DHT22;27925;41.874;12.526;2022-08-21T15:49:40;34.20;42.40
40538;DHT22;27925;41.874;12.526;2022-08-21T15:52:11;34.20;42.60
40538;DHT22;27925;41.874;12.526;2022-08-21T15:54:36;34.10;42.60
40538;DHT22;27925;41.874;12.526;2022-08-21T15:57:02;34.00;42.60
40538;DHT22;27925;41.874;12.526;2022-08-21T15:59:37;34.00;42.80
40538;DHT22;27925;41.874;12.526;2022-08-21T16:02:06;34.00;43.30
40538;DHT22;27925;41.874;12.526;2022-08-21T16:04:32;34.00;43.10
40538;DHT22;27925;41.874;12.526;2022-08-21T16:06:58;34.00;42.80
40538;DHT22;27925;41.874;12.526;2022-08-21T16:09:24;33.90;42.40
40538;DHT22;27925;41.874;12.526;2022-08-21T16:11:50;33.90;42.60
40538;DHT22;27925;41.874;12.526;2022-08-21T16:14:16;33.70;42.60
40538;DHT22;27925;41.874;12.526;2022-08-21T16:16:43;33.60;42.60
40538;DHT22;27925;41.874;12.526;2022-08-21T16:19:10;33.50;42.50
40538;DHT22;27925;41.874;12.526;2022-08-21T16:21:36;33.50;42.50
40538;DHT22;27925;41.874;12.526;2022-08-21T16:24:02;33.50;42.80
40538;DHT22;27925;41.874;12.526;2022-08-21T16:26:28;33.30;42.30
40538;DHT22;27925;41.874;12.526;2022-08-21T16:28:56;33.20;42.00
40538;DHT22;27925;41.874;12.526;2022-08-21T16:31:24;33.10;41.80
40538;DHT22;27925;41.874;12.526;2022-08-21T16:33:52;32.90;42.10
40538;DHT22;27925;41.874;12.526;2022-08-21T16:36:19;32.80;42.20
40538;DHT22;27925;41.874;12.526;2022-08-21T16:38:46;32.80;42.80
40538;DHT22;27925;41.874;12.526;2022-08-21T16:41:16;32.70;42.70
40538;DHT22;27925;41.874;12.526;2022-08-21T16:43:43;32.60;43.00
40538;DHT22;27925;41.874;12.526;2022-08-21T16:46:12;32.50;43.10
40538;DHT22;27925;41.874;12.526;2022-08-21T16:48:39;32.50;43.40
40538;DHT22;27925;41.874;12.526;2022-08-21T16:51:05;32.40;43.80
40538;DHT22;27925;41.874;12.526;2022-08-21T16:53:31;32.40;44.10
40538;DHT22;27925;41.874;12.526;2022-08-21T16:55:57;32.30;44.40